sensor_id;sensor_type;location;lat;lon;timestamp;temperature;humidity
46458;DHT22;32155;54.076;12.092;2024-01-16T00:01:31;-2.50;99.90
46458;DHT22;32155;54.076;12.092;2024-01-16T00:03:57;-2.50;99.90
46458;DHT22;32155;54.076;12.092;2024-01-16T00:06:22;-2.50;99.90
46458;DHT22;32155;54.076;12.092;2024-01-16T00:08:51;-2.40;99.90
46458;DHT22;32155;54.076;12.092;2024-01-16T00:11:20;-2.40;99.90
46458;DHT22;32155;54.076;12.092;2024-01-16T00:13:45;-2.40;99.90
46458;DHT22;32155;54.076;12.092;2024-01-16T00:16:11;-2.30;99.90
46458;DHT22;32155;54.076;12.092;2024-01-16T00:18:46;-2.30;99.90
46458;DHT22;32155;54.076;12.092;2024-01-16T00:21:17;-2.20;99.90
46458;DHT22;32155;54.076;12.092;2024-01-16T00:23:46;-2.00;99.90
46458;DHT22;32155;54.076;12.092;2024-01-16T00:26:22;-1.80;99.90
46458;DHT22;32155;54.076;12.092;2024-01-16T00:28:48;-1.70;99.90
46458;DHT22;32155;54.076;12.092;2024-01-16T00:31:14;-1.70;99.90
46458;DHT22;32155;54.076;12.092;2024-01-16T00:33:42;-1.60;99.90
46458;DHT22;32155;54.076;12.092;2024-01-16T00:36:37;-1.60;99.90
46458;DHT22;32155;54.076;12.092;2024-01-16T00:39:08;-1.50;99.90
46458;DHT22;32155;54.076;12.092;2024-01-16T00:41:35;-1.40;99.90
46458;DHT22;32155;54.076;12.092;2024-01-16T00:44:04;-1.30;99.90
46458;DHT22;32155;54.076;12.092;2024-01-16T00:46:29;-1.30;99.90
46458;DHT22;32155;54.076;12.092;2024-01-16T00:48:55;-1.20;99.90
46458;DHT22;32155;54.076;12.092;2024-01-16T00:51:35;-1.20;99.90
46458;DHT22;32155;54.076;12.092;2024-01-16T00:54:00;-1.20;99.90
46458;DHT22;32155;54.076;12.092;2024-01-16T00:56:31;-1.10;99.90
46458;DHT22;32155;54.076;12.092;2024-01-16T00:58:59;-1.10;99.90
46458;DHT22;32155;54.076;12.092;2024-01-16T01:01:31;-1.10;99.90
46458;DHT22;32155;54.076;12.092;2024-01-16T01:03:57;-1.10;99.90
46458;DHT22;32155;54.076;12.092;2024-01-16T01:06:22;-1.10;99.90
46458;DHT22;32155;54.076;12.092;2024-01-16T01:08:50;-1.00;99.90
46458;DHT22;32155;54.076;12.092;2024-01-16T01:11:16;-1.00;99.90
46458;DHT22;32155;54.076;12.092;2024-01-16T01:13:42;-1.00;99.90
46458;DHT22;32155;54.076;12.092;2024-01-16T01:16:08;-1.00;99.90
46458;DHT22;32155;54.076;12.092;2024-01-16T01:18:42;-1.00;99.90
46458;DHT22;32155;54.076;12.092;2024-01-16T01:21:07;-0.90;99.90
46458;DHT22;32155;54.076;12.092;2024-01-16T01:23:39;-0.90;99.90
46458;DHT22;32155;54.076;12.092;2024-01-16T01:26:10;-0.70;99.90
46458;DHT22;32155;54.076;12.092;2024-01-16T01:28:54;-0.70;99.90
46458;DHT22;32155;54.076;12.092;2024-01-16T01:31:34;-0.70;99.90
46458;DHT22;32155;54.076;12.092;2024-01-16T01:34:03;-0.80;99.90
46458;DHT22;32155;54.076;12.092;2024-01-16T01:36:32;-0.80;99.90
46458;DHT22;32155;54.076;12.092;2024-01-16T01:38:58;-0.80;99.90
46458;DHT22;32155;54.076;12.092;2024-01-16T01:41:26;-0.70;99.90
46458;DHT22;32155;54.076;12.092;2024-01-16T01:43:52;-0.70;99.90
46458;DHT22;32155;54.076;12.092;2024-01-16T01:46:18;-0.50;99.90
46458;DHT22;32155;54.076;12.092;2024-01-16T01:48:44;-0.50;99.90
46458;DHT22;32155;54.076;12.092;2024-01-16T01:51:12;-0.40;99.90
46458;DHT22;32155;54.076;12.092;2024-01-16T01:53:38;-0.30;99.90
46458;DHT22;32155;54.076;12.092;2024-01-16T01:56:04;-0.40;99.90
46458;DHT22;32155;54.076;12.092;2024-01-16T01:58:33;-0.50;99.90
46458;DHT22;32155;54.076;12.092;2024-01-16T02:00:59;-0.50;99.90
46458;DHT22;32155;54.076;12.092;2024-01-16T02:03:26;-0.60;99.90
46458;DHT22;32155;54.076;12.092;2024-01-16T02:05:56;-0.60;99.90
46458;DHT22;32155;54.076;12.092;2024-01-16T02:08:22;-0.60;99.90
46458;DHT22;32155;54.076;12.092;2024-01-16T02:10:48;-0.60;99.90
46458;DHT22;32155;54.076;12.092;2024-01-16T02:13:15;-0.70;99.90
46458;DHT22;32155;54.076;12.092;2024-01-16T02:15:49;-0.70;99.90
46458;DHT22;32155;54.076;12.092;2024-01-16T02:18:20;-0.70;99.90
46458;DHT22;32155;54.076;12.092;2024-01-16T02:20:47;-0.70;99.90
46458;DHT22;32155;54.076;12.092;2024-01-16T02:23:13;-0.70;99.90
46458;DHT22;32155;54.076;12.092;2024-01-16T02:25:42;-0.60;99.90
46458;DHT22;32155;54.076;12.092;2024-01-16T02:28:13;-0.60;99.90
46458;DHT22;32155;54.076;12.092;2024-01-16T02:30:49;-0.60;99.90
46458;DHT22;32155;54.076;12.092;2024-01-16T02:33:14;-0.70;99.90
46458;DHT22;32155;54.076;12.092;2024-01-16T02:35:40;-0.80;99.90
46458;DHT22;32155;54.076;12.092;2024-01-16T02:38:06;-0.80;99.90
46458;DHT22;32155;54.076;12.092;2024-01-16T02:40:31;-0.70;99.90
46458;DHT22;32155;54.076;12.092;2024-01-16T02:42:57;-0.70;99.90
46458;DHT22;32155;54.076;12.092;2024-01-16T02:45:23;-0.70;99.90
46458;DHT22;32155;54.076;12.092;2024-01-16T02:47:52;-0.90;99.90
46458;DHT22;32155;54.076;12.092;2024-01-16T02:50:23;-1.10;99.90
46458;DHT22;32155;54.076;12.092;2024-01-16T02:53:11;-1.30;99.90
46458;DHT22;32155;54.076;12.092;2024-01-16T02:55:43;-1.40;99.90
46458;DHT22;32155;54.076;12.092;2024-01-16T02:58:34;-1.40;99.90
46458;DHT22;32155;54.076;12.092;2024-01-16T03:01:08;-1.50;99.90
46458;DHT22;32155;54.076;12.092;2024-01-16T03:03:39;-1.60;99.90
46458;DHT22;32155;54.076;12.092;2024-01-16T03:06:05;-1.60;99.90
46458;DHT22;32155;54.076;12.092;2024-01-16T03:08:42;-1.60;99.90
46458;DHT22;32155;54.076;12.092;2024-01-16T03:11:17;-1.50;99.90
46458;DHT22;32155;54.076;12.092;2024-01-16T03:13:46;-1.30;99.90
46458;DHT22;32155;54.076;12.092;2024-01-16T03:16:14;-1.20;99.90
46458;DHT22;32155;54.076;12.092;2024-01-16T03:18:39;-1.10;99.90
46458;DHT22;32155;54.076;12.092;2024-01-16T03:21:05;-1.00;99.90
46458;DHT22;32155;54.076;12.092;2024-01-16T03:23:31;-1.00;99.90
46458;DHT22;32155;54.076;12.092;2024-01-16T03:25:59;-1.00;99.90
46458;DHT22;32155;54.076;12.092;2024-01-16T03:28:27;-1.10;99.90
46458;DHT22;32155;54.076;12.092;2024-01-16T03:30:56;-1.10;99.90
46458;DHT22;32155;54.076;12.092;2024-01-16T03:33:22;-1.10;99.90
46458;DHT22;32155;54.076;12.092;2024-01-16T03:35:47;-1.10;99.90
46458;DHT22;32155;54.076;12.092;2024-01-16T03:38:13;-1.00;99.90
46458;DHT22;32155;54.076;12.092;2024-01-16T03:40:41;-1.00;99.90
46458;DHT22;32155;54.076;12.092;2024-01-16T03:46:02;-1.30;99.90
46458;DHT22;32155;54.076;12.092;2024-01-16T03:57:25;-1.40;99.90
46458;DHT22;32155;54.076;12.092;2024-01-16T04:00:03;-1.40;99.90
46458;DHT22;32155;54.076;12.092;2024-01-16T04:02:30;-1.50;99.90
46458;DHT22;32155;54.076;12.092;2024-01-16T04:05:00;-1.60;99.90
46458;DHT22;32155;54.076;12.092;2024-01-16T04:07:26;-1.60;99.90
46458;DHT22;32155;54.076;12.092;2024-01-16T04:09:54;-1.60;99.90
46458;DHT22;32155;54.076;12.092;2024-01-16T04:12:23;-1.60;99.90
46458;DHT22;32155;54.076;12.092;2024-01-16T04:14:51;-1.50;99.90
46458;DHT22;32155;54.076;12.092;2024-01-16T04:17:17;-1.50;99.90
46458;DHT22;32155;54.076;12.092;2024-01-16T04:19:43;-1.40;99.90
46458;DHT22;32155;54.076;12.092;2024-01-16T04:22:11;-1.40;99.90
46458;DHT22;32155;54.076;12.092;2024-01-16T04:24:37;-1.40;99.90
46458;DHT22;32155;54.076;12.092;2024-01-16T04:27:03;-1.40;99.90
46458;DHT22;32155;54.076;12.092;2024-01-16T04:32:08;-1.40;99.90
46458;DHT22;32155;54.076;12.092;2024-01-16T04:34:39;-1.40;99.90
46458;DHT22;32155;54.076;12.092;2024-01-16T04:37:05;-1.40;99.90
46458;DHT22;32155;54.076;12.092;2024-01-16T04:39:31;-1.30;99.90
46458;DHT22;32155;54.076;12.092;2024-01-16T04:41:57;-1.20;99.90
46458;DHT22;32155;54.076;12.092;2024-01-16T04:44:25;-1.20;99.90
46458;DHT22;32155;54.076;12.092;2024-01-16T04:46:58;-1.20;99.90
46458;DHT22;32155;54.076;12.092;2024-01-16T04:49:24;-1.30;99.90
46458;DHT22;32155;54.076;12.092;2024-01-16T04:51:50;-1.20;99.90
46458;DHT22;32155;54.076;12.092;2024-01-16T04:54:16;-1.10;99.90
46458;DHT22;32155;54.076;12.092;2024-01-16T04:56:41;-1.10;99.90
46458;DHT22;32155;54.076;12.092;2024-01-16T04:59:07;-1.10;99.90
46458;DHT22;32155;54.076;12.092;2024-01-16T05:01:33;-1.00;99.90
46458;DHT22;32155;54.076;12.092;2024-01-16T05:04:01;-1.00;99.90
46458;DHT22;32155;54.076;12.092;2024-01-16T05:06:30;-0.90;99.90
46458;DHT22;32155;54.076;12.092;2024-01-16T05:09:41;-1.00;99.90
46458;DHT22;32155;54.076;12.092;2024-01-16T05:12:13;-1.20;99.90
46458;DHT22;32155;54.076;12.092;2024-01-16T05:14:38;-1.30;99.90
46458;DHT22;32155;54.076;12.092;2024-01-16T05:17:04;-1.30;99.90
46458;DHT22;32155;54.076;12.092;2024-01-16T05:19:32;-1.40;99.90
46458;DHT22;32155;54.076;12.092;2024-01-16T05:21:58;-1.40;99.90
46458;DHT22;32155;54.076;12.092;2024-01-16T05:24:26;-1.30;99.90
46458;DHT22;32155;54.076;12.092;2024-01-16T05:26:54;-1.30;99.90
46458;DHT22;32155;54.076;12.092;2024-01-16T05:29:30;-1.40;99.90
46458;DHT22;32155;54.076;12.092;2024-01-16T05:31:58;-1.40;99.90
46458;DHT22;32155;54.076;12.092;2024-01-16T05:34:24;-1.40;99.90
46458;DHT22;32155;54.076;12.092;2024-01-16T05:36:57;-1.40;99.90
46458;DHT22;32155;54.076;12.092;2024-01-16T05:39:28;-1.30;99.90
46458;DHT22;32155;54.076;12.092;2024-01-16T05:41:54;-1.30;99.90
46458;DHT22;32155;54.076;12.092;2024-01-16T05:44:19;-1.20;99.90
46458;DHT22;32155;54.076;12.092;2024-01-16T05:47:01;-1.20;99.90
46458;DHT22;32155;54.076;12.092;2024-01-16T05:49:29;-1.10;99.90
46458;DHT22;32155;54.076;12.092;2024-01-16T05:52:05;-1.00;99.90
46458;DHT22;32155;54.076;12.092;2024-01-16T05:54:30;-1.00;99.90
46458;DHT22;32155;54.076;12.092;2024-01-16T05:56:56;-1.10;99.90
46458;DHT22;32155;54.076;12.092;2024-01-16T05:59:22;-1.20;99.90
46458;DHT22;32155;54.076;12.092;2024-01-16T06:01:53;-1.20;99.90
46458;DHT22;32155;54.076;12.092;2024-01-16T06:04:22;-1.30;99.90
46458;DHT22;32155;54.076;12.092;2024-01-16T06:06:47;-1.30;99.90
46458;DHT22;32155;54.076;12.092;2024-01-16T06:09:16;-1.40;99.90
46458;DHT22;32155;54.076;12.092;2024-01-16T06:12:03;-1.30;99.90
46458;DHT22;32155;54.076;12.092;2024-01-16T06:14:29;-1.20;99.90
46458;DHT22;32155;54.076;12.092;2024-01-16T06:16:54;-1.10;99.90
46458;DHT22;32155;54.076;12.092;2024-01-16T06:19:23;-1.10;99.90
46458;DHT22;32155;54.076;12.092;2024-01-16T06:22:01;-1.00;99.90
46458;DHT22;32155;54.076;12.092;2024-01-16T06:24:30;-1.00;99.90
46458;DHT22;32155;54.076;12.092;2024-01-16T06:27:05;-0.90;99.90
46458;DHT22;32155;54.076;12.092;2024-01-16T06:32:49;-0.60;99.90
46458;DHT22;32155;54.076;12.092;2024-01-16T06:35:15;-0.70;99.90
46458;DHT22;32155;54.076;12.092;2024-01-16T06:37:44;-0.80;99.90
46458;DHT22;32155;54.076;12.092;2024-01-16T06:40:12;-0.80;99.90
46458;DHT22;32155;54.076;12.092;2024-01-16T06:42:38;-0.80;99.90
46458;DHT22;32155;54.076;12.092;2024-01-16T06:45:09;-0.90;99.90
46458;DHT22;32155;54.076;12.092;2024-01-16T06:47:47;-1.00;99.90
46458;DHT22;32155;54.076;12.092;2024-01-16T06:50:13;-1.20;99.90
46458;DHT22;32155;54.076;12.092;2024-01-16T06:52:39;-1.20;99.90
46458;DHT22;32155;54.076;12.092;2024-01-16T06:55:05;-1.20;99.90
46458;DHT22;32155;54.076;12.092;2024-01-16T06:57:36;-1.30;99.90
46458;DHT22;32155;54.076;12.092;2024-01-16T07:00:23;-1.40;99.90
46458;DHT22;32155;54.076;12.092;2024-01-16T07:02:51;-1.30;99.90
46458;DHT22;32155;54.076;12.092;2024-01-16T07:05:17;-1.40;99.90
46458;DHT22;32155;54.076;12.092;2024-01-16T07:07:45;-1.50;99.90
46458;DHT22;32155;54.076;12.092;2024-01-16T07:13:19;-1.50;99.90
46458;DHT22;32155;54.076;12.092;2024-01-16T07:18:32;-1.60;99.90
46458;DHT22;32155;54.076;12.092;2024-01-16T07:20:58;-1.60;99.90
46458;DHT22;32155;54.076;12.092;2024-01-16T07:23:28;-1.60;99.90
46458;DHT22;32155;54.076;12.092;2024-01-16T07:26:03;-1.70;99.90
46458;DHT22;32155;54.076;12.092;2024-01-16T07:28:29;-1.80;99.90
46458;DHT22;32155;54.076;12.092;2024-01-16T07:30:55;-1.80;99.90
46458;DHT22;32155;54.076;12.092;2024-01-16T07:33:47;-1.80;99.90
46458;DHT22;32155;54.076;12.092;2024-01-16T08:00:35;-1.70;99.90
46458;DHT22;32155;54.076;12.092;2024-01-16T08:03:04;-1.70;99.90
46458;DHT22;32155;54.076;12.092;2024-01-16T08:05:54;-1.70;99.90
46458;DHT22;32155;54.076;12.092;2024-01-16T08:08:40;-1.60;99.90
46458;DHT22;32155;54.076;12.092;2024-01-16T08:11:50;-1.70;99.90
46458;DHT22;32155;54.076;12.092;2024-01-16T08:14:21;-1.60;99.90
46458;DHT22;32155;54.076;12.092;2024-01-16T08:16:57;-1.50;99.90
46458;DHT22;32155;54.076;12.092;2024-01-16T08:26:11;-1.20;99.90
46458;DHT22;32155;54.076;12.092;2024-01-16T08:35:04;-1.00;99.90
46458;DHT22;32155;54.076;12.092;2024-01-16T08:37:33;-1.00;99.90
46458;DHT22;32155;54.076;12.092;2024-01-16T08:40:01;-0.90;99.90
46458;DHT22;32155;54.076;12.092;2024-01-16T08:42:39;-0.80;99.90
46458;DHT22;32155;54.076;12.092;2024-01-16T08:45:14;-0.70;99.90
46458;DHT22;32155;54.076;12.092;2024-01-16T08:47:49;-0.40;99.90
46458;DHT22;32155;54.076;12.092;2024-01-16T08:53:24;-0.10;99.90
46458;DHT22;32155;54.076;12.092;2024-01-16T08:55:52;0.00;99.90
46458;DHT22;32155;54.076;12.092;2024-01-16T09:05:02;0.10;99.90
46458;DHT22;32155;54.076;12.092;2024-01-16T09:13:20;-0.50;99.90
46458;DHT22;32155;54.076;12.092;2024-01-16T09:15:58;-0.60;99.90
46458;DHT22;32155;54.076;12.092;2024-01-16T09:21:46;-0.70;99.90
46458;DHT22;32155;54.076;12.092;2024-01-16T09:27:14;-0.80;99.90
46458;DHT22;32155;54.076;12.092;2024-01-16T09:33:11;-0.90;99.90
46458;DHT22;32155;54.076;12.092;2024-01-16T09:36:11;-1.10;99.90
46458;DHT22;32155;54.076;12.092;2024-01-16T10:04:19;-0.30;99.90
46458;DHT22;32155;54.076;12.092;2024-01-16T10:16:21;0.00;99.90
46458;DHT22;32155;54.076;12.092;2024-01-16T10:19:05;0.00;99.90
46458;DHT22;32155;54.076;12.092;2024-01-16T10:21:49;-0.10;99.90
46458;DHT22;32155;54.076;12.092;2024-01-16T10:24:23;0.10;99.90
46458;DHT22;32155;54.076;12.092;2024-01-16T11:03:48;-0.10;99.90
46458;DHT22;32155;54.076;12.092;2024-01-16T11:06:19;-0.10;99.90
46458;DHT22;32155;54.076;12.092;2024-01-16T11:08:48;-0.10;99.90
46458;DHT22;32155;54.076;12.092;2024-01-16T11:11:16;-0.10;99.90
46458;DHT22;32155;54.076;12.092;2024-01-16T11:14:00;-0.10;99.90
46458;DHT22;32155;54.076;12.092;2024-01-16T11:16:35;-0.10;99.90
46458;DHT22;32155;54.076;12.092;2024-01-16T11:25:14;-0.20;99.90
46458;DHT22;32155;54.076;12.092;2024-01-16T11:28:11;-0.20;99.90
46458;DHT22;32155;54.076;12.092;2024-01-16T11:30:58;-0.20;99.90
46458;DHT22;32155;54.076;12.092;2024-01-16T11:33:47;-0.10;99.90
46458;DHT22;32155;54.076;12.092;2024-01-16T11:42:36;0.20;99.90
46458;DHT22;32155;54.076;12.092;2024-01-16T11:48:26;0.30;99.90
46458;DHT22;32155;54.076;12.092;2024-01-16T11:51:21;0.40;99.90
46458;DHT22;32155;54.076;12.092;2024-01-16T11:53:58;0.30;99.90
46458;DHT22;32155;54.076;12.092;2024-01-16T11:56:46;0.40;99.90
46458;DHT22;32155;54.076;12.092;2024-01-16T12:05:06;0.30;99.90
46458;DHT22;32155;54.076;12.092;2024-01-16T12:07:48;0.30;99.90
46458;DHT22;32155;54.076;12.092;2024-01-16T12:10:58;0.30;99.90
46458;DHT22;32155;54.076;12.092;2024-01-16T12:13:23;0.30;99.90
46458;DHT22;32155;54.076;12.092;2024-01-16T12:16:20;0.30;99.90
46458;DHT22;32155;54.076;12.092;2024-01-16T12:18:49;0.40;99.90
46458;DHT22;32155;54.076;12.092;2024-01-16T12:21:15;0.40;99.90
46458;DHT22;32155;54.076;12.092;2024-01-16T12:23:51;0.30;99.90
46458;DHT22;32155;54.076;12.092;2024-01-16T12:29:28;0.30;99.90
46458;DHT22;32155;54.076;12.092;2024-01-16T12:35:21;0.40;99.90
46458;DHT22;32155;54.076;12.092;2024-01-16T12:44:18;0.30;99.90
46458;DHT22;32155;54.076;12.092;2024-01-16T12:58:13;0.60;99.90
46458;DHT22;32155;54.076;12.092;2024-01-16T13:00:39;0.80;99.90
46458;DHT22;32155;54.076;12.092;2024-01-16T13:03:25;0.80;99.90
46458;DHT22;32155;54.076;12.092;2024-01-16T13:06:24;0.70;99.90
46458;DHT22;32155;54.076;12.092;2024-01-16T13:09:03;0.60;99.90
46458;DHT22;32155;54.076;12.092;2024-01-16T13:14:27;0.80;99.90
46458;DHT22;32155;54.076;12.092;2024-01-16T13:17:03;0.70;99.90
46458;DHT22;32155;54.076;12.092;2024-01-16T13:19:39;0.80;99.90
46458;DHT22;32155;54.076;12.092;2024-01-16T13:22:05;0.80;99.90
46458;DHT22;32155;54.076;12.092;2024-01-16T13:24:42;0.80;99.90
46458;DHT22;32155;54.076;12.092;2024-01-16T13:27:08;0.80;99.90
46458;DHT22;32155;54.076;12.092;2024-01-16T13:29:38;0.80;99.90
46458;DHT22;32155;54.076;12.092;2024-01-16T13:32:07;0.80;99.90
46458;DHT22;32155;54.076;12.092;2024-01-16T13:50:24;1.40;99.90
46458;DHT22;32155;54.076;12.092;2024-01-16T13:53:25;1.50;99.90
46458;DHT22;32155;54.076;12.092;2024-01-16T13:56:35;1.40;99.90
46458;DHT22;32155;54.076;12.092;2024-01-16T14:17:45;1.40;99.90
46458;DHT22;32155;54.076;12.092;2024-01-16T14:26:35;0.80;99.90
46458;DHT22;32155;54.076;12.092;2024-01-16T14:34:56;0.70;99.90
46458;DHT22;32155;54.076;12.092;2024-01-16T14:40:30;0.80;99.90
46458;DHT22;32155;54.076;12.092;2024-01-16T14:43:26;0.70;99.90
46458;DHT22;32155;54.076;12.092;2024-01-16T14:46:00;0.70;99.90
46458;DHT22;32155;54.076;12.092;2024-01-16T14:57:32;0.80;99.90
46458;DHT22;32155;54.076;12.092;2024-01-16T15:12:46;0.80;99.90
46458;DHT22;32155;54.076;12.092;2024-01-16T15:15:39;0.80;99.90
46458;DHT22;32155;54.076;12.092;2024-01-16T15:21:14;0.80;99.90
46458;DHT22;32155;54.076;12.092;2024-01-16T15:23:40;0.70;99.90
46458;DHT22;32155;54.076;12.092;2024-01-16T15:29:25;0.70;99.90
46458;DHT22;32155;54.076;12.092;2024-01-16T15:32:07;0.60;99.90
46458;DHT22;32155;54.076;12.092;2024-01-16T15:34:36;0.60;99.90
46458;DHT22;32155;54.076;12.092;2024-01-16T15:37:05;0.70;99.90
46458;DHT22;32155;54.076;12.092;2024-01-16T15:39:31;0.70;99.90
46458;DHT22;32155;54.076;12.092;2024-01-16T15:41:59;0.60;99.90
46458;DHT22;32155;54.076;12.092;2024-01-16T15:44:25;0.60;99.90
46458;DHT22;32155;54.076;12.092;2024-01-16T15:46:55;0.60;99.90
46458;DHT22;32155;54.076;12.092;2024-01-16T15:49:21;0.30;99.90
46458;DHT22;32155;54.076;12.092;2024-01-16T15:51:47;0.20;99.90
46458;DHT22;32155;54.076;12.092;2024-01-16T15:54:28;0.20;99.90
46458;DHT22;32155;54.076;12.092;2024-01-16T15:56:56;0.20;99.90
46458;DHT22;32155;54.076;12.092;2024-01-16T16:02:23;0.20;99.90
46458;DHT22;32155;54.076;12.092;2024-01-16T16:05:09;0.40;99.90
46458;DHT22;32155;54.076;12.092;2024-01-16T16:07:35;0.50;99.90
46458;DHT22;32155;54.076;12.092;2024-01-16T16:12:53;0.30;99.90
46458;DHT22;32155;54.076;12.092;2024-01-16T16:15:39;0.20;99.90
46458;DHT22;32155;54.076;12.092;2024-01-16T16:18:05;0.20;99.90
46458;DHT22;32155;54.076;12.092;2024-01-16T16:20:38;0.40;99.90
46458;DHT22;32155;54.076;12.092;2024-01-16T16:23:12;0.30;99.90
46458;DHT22;32155;54.076;12.092;2024-01-16T16:25:44;0.40;99.90
46458;DHT22;32155;54.076;12.092;2024-01-16T16:28:13;0.40;99.90
46458;DHT22;32155;54.076;12.092;2024-01-16T16:30:39;0.30;99.90
46458;DHT22;32155;54.076;12.092;2024-01-16T16:33:08;0.40;99.90
46458;DHT22;32155;54.076;12.092;2024-01-16T16:35:43;0.40;99.90
46458;DHT22;32155;54.076;12.092;2024-01-16T16:38:12;0.40;99.90
46458;DHT22;32155;54.076;12.092;2024-01-16T16:40:57;0.40;99.90
46458;DHT22;32155;54.076;12.092;2024-01-16T16:46:27;0.30;99.90
46458;DHT22;32155;54.076;12.092;2024-01-16T16:48:52;0.30;99.90
46458;DHT22;32155;54.076;12.092;2024-01-16T16:51:19;0.30;99.90
46458;DHT22;32155;54.076;12.092;2024-01-16T16:54:04;0.30;99.90
46458;DHT22;32155;54.076;12.092;2024-01-16T16:56:33;0.20;99.90
46458;DHT22;32155;54.076;12.092;2024-01-16T16:59:11;0.20;99.90
46458;DHT22;32155;54.076;12.092;2024-01-16T17:01:39;0.20;99.90
46458;DHT22;32155;54.076;12.092;2024-01-16T17:04:05;0.20;99.90
46458;DHT22;32155;54.076;12.092;2024-01-16T17:06:31;0.10;99.90
46458;DHT22;32155;54.076;12.092;2024-01-16T17:09:19;0.10;99.90
46458;DHT22;32155;54.076;12.092;2024-01-16T17:11:47;0.10;99.90
46458;DHT22;32155;54.076;12.092;2024-01-16T17:14:13;0.20;99.90
46458;DHT22;32155;54.076;12.092;2024-01-16T17:16:39;0.00;99.90
46458;DHT22;32155;54.076;12.092;2024-01-16T17:19:05;-0.10;99.90
46458;DHT22;32155;54.076;12.092;2024-01-16T17:21:31;-0.10;99.90
46458;DHT22;32155;54.076;12.092;2024-01-16T17:24:07;-0.10;99.90
46458;DHT22;32155;54.076;12.092;2024-01-16T17:26:36;0.00;99.90
46458;DHT22;32155;54.076;12.092;2024-01-16T17:29:07;0.10;99.90
46458;DHT22;32155;54.076;12.092;2024-01-16T17:31:33;0.00;99.90
46458;DHT22;32155;54.076;12.092;2024-01-16T17:34:04;0.10;99.90
46458;DHT22;32155;54.076;12.092;2024-01-16T17:36:33;0.20;99.90
46458;DHT22;32155;54.076;12.092;2024-01-16T17:39:11;0.00;99.90
46458;DHT22;32155;54.076;12.092;2024-01-16T17:41:59;0.10;99.90
46458;DHT22;32155;54.076;12.092;2024-01-16T17:44:25;0.10;99.90
46458;DHT22;32155;54.076;12.092;2024-01-16T17:46:54;0.20;99.90
46458;DHT22;32155;54.076;12.092;2024-01-16T17:49:26;0.10;99.90
46458;DHT22;32155;54.076;12.092;2024-01-16T17:52:14;0.30;99.90
46458;DHT22;32155;54.076;12.092;2024-01-16T17:54:40;0.20;99.90
46458;DHT22;32155;54.076;12.092;2024-01-16T17:57:06;0.20;99.90
46458;DHT22;32155;54.076;12.092;2024-01-16T17:59:35;0.20;99.90
46458;DHT22;32155;54.076;12.092;2024-01-16T18:05:19;0.20;99.90
46458;DHT22;32155;54.076;12.092;2024-01-16T18:07:51;0.30;99.90
46458;DHT22;32155;54.076;12.092;2024-01-16T18:10:20;0.40;99.90
46458;DHT22;32155;54.076;12.092;2024-01-16T18:12:56;0.40;99.90
46458;DHT22;32155;54.076;12.092;2024-01-16T18:15:29;0.40;99.90
46458;DHT22;32155;54.076;12.092;2024-01-16T18:17:57;0.50;99.90
46458;DHT22;32155;54.076;12.092;2024-01-16T18:20:27;0.50;99.90
46458;DHT22;32155;54.076;12.092;2024-01-16T18:22:57;0.50;99.90
46458;DHT22;32155;54.076;12.092;2024-01-16T18:25:34;0.50;99.90
46458;DHT22;32155;54.076;12.092;2024-01-16T18:31:36;0.50;99.90
46458;DHT22;32155;54.076;12.092;2024-01-16T18:33:45;0.70;99.90
46458;DHT22;32155;54.076;12.092;2024-01-16T18:36:23;0.60;99.90
46458;DHT22;32155;54.076;12.092;2024-01-16T18:38:54;0.60;99.90
46458;DHT22;32155;54.076;12.092;2024-01-16T18:41:20;0.50;99.90
46458;DHT22;32155;54.076;12.092;2024-01-16T18:43:47;0.50;99.90
46458;DHT22;32155;54.076;12.092;2024-01-16T18:46:27;0.50;99.90
46458;DHT22;32155;54.076;12.092;2024-01-16T18:48:57;0.50;99.90
46458;DHT22;32155;54.076;12.092;2024-01-16T18:51:41;0.60;99.90
46458;DHT22;32155;54.076;12.092;2024-01-16T18:54:14;0.50;99.90
46458;DHT22;32155;54.076;12.092;2024-01-16T18:56:41;0.50;99.90
46458;DHT22;32155;54.076;12.092;2024-01-16T18:59:10;0.50;99.90
46458;DHT22;32155;54.076;12.092;2024-01-16T19:01:37;0.60;99.90
46458;DHT22;32155;54.076;12.092;2024-01-16T19:04:05;0.70;99.90
46458;DHT22;32155;54.076;12.092;2024-01-16T19:10:04;0.60;99.90
46458;DHT22;32155;54.076;12.092;2024-01-16T19:12:33;0.60;99.90
46458;DHT22;32155;54.076;12.092;2024-01-16T19:15:07;0.60;99.90
46458;DHT22;32155;54.076;12.092;2024-01-16T19:17:53;0.60;99.90
46458;DHT22;32155;54.076;12.092;2024-01-16T19:20:18;0.60;99.90
46458;DHT22;32155;54.076;12.092;2024-01-16T19:22:48;0.70;99.90
46458;DHT22;32155;54.076;12.092;2024-01-16T19:25:20;0.70;99.90
46458;DHT22;32155;54.076;12.092;2024-01-16T19:28:00;0.70;99.90
46458;DHT22;32155;54.076;12.092;2024-01-16T19:30:28;0.70;99.90
46458;DHT22;32155;54.076;12.092;2024-01-16T19:32:56;0.70;99.90
46458;DHT22;32155;54.076;12.092;2024-01-16T19:35:22;0.70;99.90
46458;DHT22;32155;54.076;12.092;2024-01-16T19:37:50;0.70;99.90
46458;DHT22;32155;54.076;12.092;2024-01-16T19:40:21;0.70;99.90
46458;DHT22;32155;54.076;12.092;2024-01-16T19:42:50;0.80;99.90
46458;DHT22;32155;54.076;12.092;2024-01-16T19:45:32;0.80;99.90
46458;DHT22;32155;54.076;12.092;2024-01-16T19:48:18;0.90;99.90
46458;DHT22;32155;54.076;12.092;2024-01-16T19:50:45;1.00;99.90
46458;DHT22;32155;54.076;12.092;2024-01-16T19:56:07;0.70;99.90
46458;DHT22;32155;54.076;12.092;2024-01-16T19:58:33;0.70;99.90
46458;DHT22;32155;54.076;12.092;2024-01-16T20:01:02;0.60;99.90
46458;DHT22;32155;54.076;12.092;2024-01-16T20:03:28;0.60;99.90
46458;DHT22;32155;54.076;12.092;2024-01-16T20:05:56;0.60;99.90
46458;DHT22;32155;54.076;12.092;2024-01-16T20:08:25;0.60;99.90
46458;DHT22;32155;54.076;12.092;2024-01-16T20:10:55;0.50;99.90
46458;DHT22;32155;54.076;12.092;2024-01-16T20:13:24;0.60;99.90
46458;DHT22;32155;54.076;12.092;2024-01-16T20:15:50;0.60;99.90
46458;DHT22;32155;54.076;12.092;2024-01-16T20:18:31;0.50;99.90
46458;DHT22;32155;54.076;12.092;2024-01-16T20:20:57;0.50;99.90
46458;DHT22;32155;54.076;12.092;2024-01-16T20:23:25;0.50;99.90
46458;DHT22;32155;54.076;12.092;2024-01-16T20:25:54;0.50;99.90
46458;DHT22;32155;54.076;12.092;2024-01-16T20:28:29;0.50;99.90
46458;DHT22;32155;54.076;12.092;2024-01-16T20:30:59;0.50;99.90
46458;DHT22;32155;54.076;12.092;2024-01-16T20:33:45;0.50;99.90
46458;DHT22;32155;54.076;12.092;2024-01-16T20:36:14;0.50;99.90
46458;DHT22;32155;54.076;12.092;2024-01-16T20:38:42;0.40;99.90
46458;DHT22;32155;54.076;12.092;2024-01-16T20:41:12;0.50;99.90
46458;DHT22;32155;54.076;12.092;2024-01-16T20:43:43;0.50;99.90
46458;DHT22;32155;54.076;12.092;2024-01-16T20:46:09;0.50;99.90
46458;DHT22;32155;54.076;12.092;2024-01-16T20:48:35;0.50;99.90
46458;DHT22;32155;54.076;12.092;2024-01-16T20:51:01;0.50;99.90
46458;DHT22;32155;54.076;12.092;2024-01-16T20:53:36;0.50;99.90
46458;DHT22;32155;54.076;12.092;2024-01-16T20:56:07;0.50;99.90